Time;durP1;ratioP1;P1;durP2;ratioP2;P2;SDS_P1;SDS_P2;PMS_P1;PMS_P2;Temp;Humidity;BMP_temperature;BMP_pressure;BME280_temperature;BME280_humidity;BME280_pressure;Samples;Min_cycle;Max_cycle;Signal;HPM_P1;HPM_P2
2022/07/23 00:00:20;;;;;;;7.63;2.63;;;14.90;85.70;;;;;;5052800;28;20100;-48
2022/07/23 00:02:47;;;;;;;5.35;2.75;;;14.90;85.70;;;;;;5068178;28;20107;-47
2022/07/23 00:05:14;;;;;;;6.88;2.90;;;14.90;85.60;;;;;;5052232;28;20021;-49
2022/07/23 00:07:41;;;;;;;7.00;2.60;;;14.90;85.50;;;;;;5052518;28;20040;-47
2022/07/23 00:10:08;;;;;;;3.88;2.00;;;14.90;85.50;;;;;;5052351;28;20071;-50
2022/07/23 00:12:35;;;;;;;7.47;2.50;;;14.90;85.30;;;;;;5052412;28;20342;-47
2022/07/23 00:15:07;;;;;;;3.95;2.20;;;15.00;85.40;;;;;;5052028;28;20430;-48
2022/07/23 00:17:34;;;;;;;3.67;2.10;;;15.00;85.40;;;;;;5052352;28;20040;-47
2022/07/23 00:20:01;;;;;;;3.60;2.22;;;15.00;85.50;;;;;;5052205;28;20035;-47
2022/07/23 00:22:29;;;;;;;4.30;2.22;;;15.00;85.30;;;;;;5052160;28;20086;-47
2022/07/23 00:24:56;;;;;;;4.38;2.20;;;15.00;85.40;;;;;;5051008;28;20063;-47
2022/07/23 00:27:23;;;;;;;3.83;2.17;;;15.00;85.40;;;;;;5050902;28;20029;-48
2022/07/23 00:29:52;;;;;;;3.78;2.08;;;15.00;85.40;;;;;;5050960;28;20017;-48
2022/07/23 00:32:18;;;;;;;5.40;2.47;;;15.00;85.40;;;;;;5050763;28;20060;-47
2022/07/23 00:34:47;;;;;;;5.78;2.35;;;15.10;85.50;;;;;;5051921;28;20076;-49
2022/07/23 00:37:16;;;;;;;6.45;2.55;;;15.10;85.60;;;;;;5051805;28;20020;-47
2022/07/23 00:39:49;;;;;;;6.10;2.78;;;15.10;85.40;;;;;;5051754;28;20130;-47
2022/07/23 00:42:16;;;;;;;6.20;3.28;;;15.10;85.40;;;;;;5051642;28;20381;-47
2022/07/23 00:44:43;;;;;;;7.53;3.47;;;15.00;85.30;;;;;;5051637;28;20090;-47
2022/07/23 00:47:12;;;;;;;7.00;3.10;;;15.00;85.40;;;;;;5051296;28;20049;-47
2022/07/23 00:49:39;;;;;;;7.83;3.20;;;15.00;85.40;;;;;;5050596;28;20035;-50
2022/07/23 00:52:06;;;;;;;6.97;2.95;;;15.00;85.50;;;;;;5051141;28;20033;-48
2022/07/23 00:54:33;;;;;;;6.72;2.78;;;15.00;85.50;;;;;;5051067;28;20039;-48
2022/07/23 00:57:00;;;;;;;7.93;2.90;;;15.00;85.50;;;;;;5049797;28;20098;-47
2022/07/23 00:59:27;;;;;;;4.47;3.28;;;15.00;85.50;;;;;;5050801;28;20412;-50
2022/07/23 01:01:54;;;;;;;4.80;3.35;;;15.10;85.70;;;;;;5050639;28;20040;-48
2022/07/23 01:04:21;;;;;;;4.97;2.90;;;15.10;85.70;;;;;;5032554;28;20021;-47
2022/07/23 01:06:47;;;;;;;4.78;2.83;;;15.10;85.70;;;;;;5050419;28;20021;-47
2022/07/23 01:09:16;;;;;;;6.68;2.97;;;15.10;85.60;;;;;;5049587;28;20035;-49
2022/07/23 01:11:43;;;;;;;7.75;3.00;;;15.10;85.50;;;;;;5065997;28;20525;-47
2022/07/23 01:14:16;;;;;;;6.88;3.47;;;15.10;85.60;;;;;;5050293;28;20111;-47
2022/07/23 01:16:46;;;;;;;8.00;3.85;;;15.00;85.50;;;;;;5033870;28;20021;-47
2022/07/23 01:19:12;;;;;;;6.30;3.53;;;15.00;85.50;;;;;;5033362;28;20114;-48
2022/07/23 01:21:41;;;;;;;5.90;3.17;;;15.00;85.60;;;;;;5033295;28;20802;-47
2022/07/23 01:24:09;;;;;;;5.05;3.10;;;15.00;85.60;;;;;;5066361;28;20047;-47
2022/07/23 01:26:40;;;;;;;10.50;3.63;;;15.00;85.60;;;;;;5051003;28;20086;-48
2022/07/23 01:29:09;;;;;;;12.95;3.45;;;15.00;85.70;;;;;;5050990;28;20028;-47
2022/07/23 01:31:38;;;;;;;6.05;3.13;;;14.90;85.70;;;;;;5049853;28;20032;-49
2022/07/23 01:34:06;;;;;;;4.90;2.90;;;15.00;85.80;;;;;;5050771;28;20090;-47
2022/07/23 01:36:34;;;;;;;5.57;3.20;;;15.00;85.90;;;;;;5051000;28;20026;-47
2022/07/23 01:39:02;;;;;;;4.78;2.80;;;15.00;85.90;;;;;;5049243;28;20438;-48
2022/07/23 01:41:29;;;;;;;6.78;3.20;;;15.00;86.00;;;;;;5049450;28;20024;-47
2022/07/23 01:43:56;;;;;;;6.60;4.05;;;15.10;86.10;;;;;;5050556;28;20438;-47
2022/07/23 01:46:22;;;;;;;9.38;4.35;;;15.00;86.30;;;;;;5050269;28;20057;-61
2022/07/23 01:48:48;;;;;;;7.60;4.35;;;15.00;86.80;;;;;;5050623;28;20053;-61
2022/07/23 01:51:15;;;;;;;7.10;4.13;;;15.00;87.30;;;;;;5050471;28;20473;-60
2022/07/23 01:53:42;;;;;;;6.65;3.67;;;14.90;87.40;;;;;;5050475;28;20432;-58
2022/07/23 01:56:08;;;;;;;6.68;3.08;;;14.90;87.80;;;;;;5032880;28;20029;-61
2022/07/23 01:58:35;;;;;;;7.88;4.00;;;14.70;88.20;;;;;;5050288;28;20155;-57
2022/07/23 02:01:03;;;;;;;6.25;3.10;;;14.60;88.20;;;;;;5049478;28;20116;-55
2022/07/23 02:03:30;;;;;;;3.97;2.75;;;14.60;88.60;;;;;;5032677;28;20037;-58
2022/07/23 02:05:57;;;;;;;5.68;2.55;;;14.50;88.70;;;;;;5050256;28;20131;-57
2022/07/23 02:08:24;;;;;;;6.82;3.35;;;14.50;88.80;;;;;;5050184;28;20029;-56
2022/07/23 02:10:53;;;;;;;5.20;3.17;;;14.60;89.00;;;;;;5049124;28;20112;-58
2022/07/23 02:13:20;;;;;;;8.48;3.45;;;14.60;89.30;;;;;;5050169;28;20045;-56
2022/07/23 02:15:47;;;;;;;4.65;3.10;;;14.60;89.10;;;;;;5050192;28;20032;-57
2022/07/23 02:18:14;;;;;;;4.70;2.53;;;14.60;89.30;;;;;;5048975;28;20037;-54
2022/07/23 02:20:46;;;;;;;4.18;2.40;;;14.60;89.30;;;;;;5049972;28;20024;-55
2022/07/23 02:23:13;;;;;;;5.40;2.47;;;14.60;89.40;;;;;;5049746;28;20045;-56
2022/07/23 02:25:40;;;;;;;6.72;2.88;;;14.60;89.40;;;;;;5049903;28;20101;-57
2022/07/23 02:28:09;;;;;;;5.55;2.88;;;14.60;89.50;;;;;;5049306;28;20405;-57
2022/07/23 02:30:39;;;;;;;5.72;3.15;;;14.60;89.50;;;;;;5049905;28;20029;-55
2022/07/23 02:33:06;;;;;;;6.88;3.28;;;14.60;89.60;;;;;;5049913;28;20029;-58
2022/07/23 02:35:33;;;;;;;7.57;3.53;;;14.60;89.70;;;;;;5049526;28;20114;-56
2022/07/23 02:38:00;;;;;;;5.57;3.25;;;14.60;89.60;;;;;;5048830;28;20120;-57
2022/07/23 02:40:26;;;;;;;5.63;3.42;;;14.50;89.60;;;;;;5049805;28;20446;-55
2022/07/23 02:42:53;;;;;;;4.35;2.88;;;14.50;89.70;;;;;;5032041;28;20520;-57
2022/07/23 02:45:22;;;;;;;6.50;3.70;;;14.50;89.70;;;;;;5031645;28;20040;-55
2022/07/23 02:47:52;;;;;;;7.65;3.20;;;14.50;89.80;;;;;;5031955;28;20128;-56
2022/07/23 02:50:19;;;;;;;5.38;3.75;;;14.40;89.90;;;;;;5048041;28;20036;-58
2022/07/23 02:52:46;;;;;;;8.27;4.25;;;14.40;89.90;;;;;;5049538;28;20037;-59
2022/07/23 02:55:13;;;;;;;4.88;3.78;;;14.40;90.10;;;;;;5048403;28;20116;-58
2022/07/23 02:57:42;;;;;;;5.45;3.92;;;14.40;90.20;;;;;;5049546;28;20082;-54
2022/07/23 03:00:10;;;;;;;6.95;4.53;;;14.50;90.20;;;;;;5048488;28;20452;-57
2022/07/23 03:02:40;;;;;;;7.97;4.85;;;14.40;90.20;;;;;;5049422;28;20048;-55
2022/07/23 03:05:07;;;;;;;10.45;5.63;;;14.40;90.20;;;;;;5064794;28;20036;-55
2022/07/23 03:07:38;;;;;;;8.90;6.20;;;14.40;90.20;;;;;;5049289;28;20021;-54
2022/07/23 03:10:06;;;;;;;6.78;4.78;;;14.40;90.30;;;;;;5048902;28;20017;-57
2022/07/23 03:12:32;;;;;;;8.80;6.40;;;14.40;90.30;;;;;;5048567;28;20104;-54
2022/07/23 03:14:59;;;;;;;6.43;5.15;;;14.40;90.40;;;;;;5049170;28;20036;-52
2022/07/23 03:17:26;;;;;;;7.63;4.97;;;14.40;90.50;;;;;;5031931;28;20025;-51
2022/07/23 03:19:52;;;;;;;7.47;4.50;;;14.40;90.40;;;;;;5049357;28;20040;-53
2022/07/23 03:22:19;;;;;;;7.95;4.40;;;14.40;90.40;;;;;;5048851;28;20060;-52
2022/07/23 03:24:54;;;;;;;5.40;3.80;;;14.40;90.50;;;;;;5048192;28;20029;-50
2022/07/23 03:27:23;;;;;;;7.00;3.85;;;14.30;90.40;;;;;;5049250;28;20071;-51
2022/07/23 03:29:54;;;;;;;5.53;3.80;;;14.40;90.30;;;;;;5031540;28;20033;-51
2022/07/23 03:32:21;;;;;;;5.38;3.83;;;14.30;90.30;;;;;;5031295;28;20530;-50
2022/07/23 03:34:48;;;;;;;5.05;3.65;;;14.30;90.30;;;;;;5049292;28;20025;-51
2022/07/23 03:37:15;;;;;;;4.88;3.15;;;14.30;90.30;;;;;;5048144;28;20061;-50
2022/07/23 03:39:42;;;;;;;4.53;3.63;;;14.30;90.20;;;;;;5031551;28;20385;-51
2022/07/23 03:42:10;;;;;;;4.22;3.00;;;14.30;90.30;;;;;;5049128;28;20029;-52
2022/07/23 03:44:40;;;;;;;3.75;3.05;;;14.30;90.30;;;;;;5048618;28;20025;-50
2022/07/23 03:47:07;;;;;;;5.18;3.65;;;14.30;90.30;;;;;;5048883;28;20064;-50
2022/07/23 03:49:34;;;;;;;6.05;3.97;;;14.30;90.50;;;;;;5047757;28;20021;-50
2022/07/23 03:52:01;;;;;;;7.15;5.05;;;14.30;90.40;;;;;;5049037;28;20029;-53
2022/07/23 03:54:26;;;;;;;6.57;4.50;;;14.30;90.50;;;;;;5048884;28;20029;-49
2022/07/23 03:56:57;;;;;;;6.85;4.65;;;14.30;90.60;;;;;;5048862;28;20025;-52
2022/07/23 03:59:23;;;;;;;7.95;5.43;;;14.30;90.60;;;;;;5048862;28;20033;-56
2022/07/23 04:01:51;;;;;;;5.43;4.55;;;14.30;90.60;;;;;;5065464;28;20039;-56
2022/07/23 04:04:18;;;;;;;9.95;4.88;;;14.10;90.60;;;;;;5051500;28;20048;-57
2022/07/23 04:06:45;;;;;;;4.55;3.35;;;14.10;90.60;;;;;;5053175;28;20458;-59
2022/07/23 04:09:12;;;;;;;3.38;2.63;;;14.00;90.60;;;;;;5034715;28;20032;-57
2022/07/23 04:11:38;;;;;;;5.35;2.83;;;14.00;90.50;;;;;;5052356;28;20025;-58
2022/07/23 04:14:05;;;;;;;3.55;2.08;;;14.00;90.30;;;;;;5051079;28;20090;-57
2022/07/23 04:16:32;;;;;;;6.22;3.15;;;14.00;90.30;;;;;;5051883;28;20036;-57
2022/07/23 04:19:01;;;;;;;4.57;2.10;;;14.00;90.20;;;;;;5050907;28;20040;-58
2022/07/23 04:21:28;;;;;;;4.45;2.10;;;14.00;90.20;;;;;;5051009;28;20028;-57
2022/07/23 04:23:55;;;;;;;3.38;2.00;;;14.00;90.20;;;;;;5051598;28;20033;-58
2022/07/23 04:26:22;;;;;;;4.75;1.90;;;13.90;90.20;;;;;;5052170;28;20021;-54
2022/07/23 04:28:48;;;;;;;4.00;2.22;;;13.90;90.30;;;;;;5052197;28;20029;-56
2022/07/23 04:31:15;;;;;;;4.50;2.50;;;14.00;90.30;;;;;;5051922;28;20025;-56
2022/07/23 04:33:42;;;;;;;4.90;1.83;;;14.00;90.10;;;;;;5051823;28;20036;-55
2022/07/23 04:36:08;;;;;;;4.65;1.98;;;14.00;89.80;;;;;;5051975;28;20060;-55
2022/07/23 04:38:35;;;;;;;5.25;1.30;;;13.90;89.70;;;;;;5051849;28;20032;-53
2022/07/23 04:41:01;;;;;;;3.90;1.52;;;13.90;89.50;;;;;;5051858;28;20107;-52
2022/07/23 04:43:28;;;;;;;3.42;1.60;;;14.00;89.70;;;;;;5051586;28;20503;-52
2022/07/23 04:45:55;;;;;;;3.40;1.92;;;14.20;89.60;;;;;;5051559;28;20072;-52
2022/07/23 04:48:21;;;;;;;4.88;2.10;;;14.20;89.30;;;;;;5050544;28;20096;-50
2022/07/23 04:50:48;;;;;;;3.20;2.13;;;14.20;89.10;;;;;;5033126;28;20490;-52
2022/07/23 04:53:15;;;;;;;4.38;2.20;;;14.30;89.10;;;;;;5051004;28;20021;-49
2022/07/23 04:55:42;;;;;;;4.18;2.67;;;14.40;89.10;;;;;;5049873;28;20029;-50
2022/07/23 04:58:08;;;;;;;5.43;2.70;;;14.40;89.10;;;;;;5050703;28;20029;-51
2022/07/23 05:00:35;;;;;;;3.45;2.25;;;14.40;89.00;;;;;;5050719;28;20025;-52
2022/07/23 05:03:01;;;;;;;5.45;2.55;;;14.40;88.80;;;;;;5033148;28;20040;-49
2022/07/23 05:05:28;;;;;;;5.35;2.70;;;14.40;88.80;;;;;;5050913;28;20029;-48
2022/07/23 05:07:54;;;;;;;4.72;2.10;;;14.50;88.90;;;;;;5050728;28;20037;-49
2022/07/23 05:10:20;;;;;;;3.60;2.40;;;14.60;89.00;;;;;;5050729;28;20040;-48
2022/07/23 05:12:48;;;;;;;4.20;2.50;;;14.70;88.90;;;;;;5050779;28;20025;-52
2022/07/23 05:15:20;;;;;;;3.42;2.55;;;14.60;88.80;;;;;;5065574;28;20037;-62
2022/07/23 05:17:47;;;;;;;5.50;2.08;;;14.70;88.90;;;;;;5050072;28;20335;-61
2022/07/23 05:20:14;;;;;;;4.90;2.75;;;14.70;89.00;;;;;;5051200;28;20118;-59
2022/07/23 05:22:41;;;;;;;4.20;2.67;;;14.70;89.10;;;;;;5050988;28;20044;-56
2022/07/23 05:25:09;;;;;;;5.22;2.85;;;14.70;89.10;;;;;;5050939;28;20064;-54
2022/07/23 05:27:35;;;;;;;4.57;3.30;;;14.70;89.20;;;;;;5051063;28;20112;-56
2022/07/23 05:30:03;;;;;;;5.50;3.05;;;14.80;89.30;;;;;;5033296;28;20476;-56
2022/07/23 05:32:32;;;;;;;6.38;3.92;;;14.80;89.50;;;;;;5032683;28;20094;-54
2022/07/23 05:34:58;;;;;;;4.47;2.90;;;14.90;89.30;;;;;;5050692;28;20067;-53
2022/07/23 05:37:25;;;;;;;4.95;2.63;;;14.90;89.50;;;;;;5050559;28;20482;-56
2022/07/23 05:39:54;;;;;;;6.10;3.05;;;15.10;89.50;;;;;;5050626;28;20374;-53
2022/07/23 05:42:21;;;;;;;6.38;3.30;;;15.20;89.20;;;;;;5050825;28;20112;-51
2022/07/23 05:44:50;;;;;;;5.03;2.72;;;15.20;89.10;;;;;;5050373;28;20029;-53
2022/07/23 05:47:17;;;;;;;5.05;2.97;;;15.40;89.20;;;;;;5050347;28;20041;-50
2022/07/23 05:49:44;;;;;;;4.97;3.83;;;15.40;89.00;;;;;;5050016;28;20025;-50
2022/07/23 05:52:10;;;;;;;4.13;3.35;;;15.50;88.80;;;;;;5050125;28;20025;-53
2022/07/23 05:54:36;;;;;;;5.57;3.40;;;15.70;88.90;;;;;;5050361;28;20443;-50
2022/07/23 05:57:03;;;;;;;5.85;3.72;;;15.90;88.70;;;;;;5032280;28;20029;-49
2022/07/23 05:59:31;;;;;;;7.10;3.63;;;15.90;88.40;;;;;;5048973;28;20024;-48
2022/07/23 06:01:59;;;;;;;4.60;3.80;;;15.90;87.60;;;;;;5032486;28;20017;-48
2022/07/23 06:04:25;;;;;;;5.13;2.53;;;15.90;87.60;;;;;;5049576;28;20028;-48
2022/07/23 06:06:52;;;;;;;6.63;4.22;;;16.00;87.90;;;;;;5049812;28;20086;-48
2022/07/23 06:09:19;;;;;;;3.95;2.92;;;16.10;87.60;;;;;;5048486;28;20063;-48
2022/07/23 06:11:45;;;;;;;7.28;4.82;;;16.10;87.70;;;;;;5050263;28;20174;-51
2022/07/23 06:14:12;;;;;;;4.13;3.00;;;16.10;87.10;;;;;;5050100;28;20076;-48
2022/07/23 06:16:38;;;;;;;6.65;4.25;;;16.20;87.50;;;;;;5050083;28;20029;-47
2022/07/23 06:19:05;;;;;;;5.35;3.97;;;16.40;87.30;;;;;;5050024;28;20035;-47
2022/07/23 06:21:32;;;;;;;5.28;3.72;;;16.40;86.80;;;;;;5050149;28;20354;-46
2022/07/23 06:23:59;;;;;;;3.95;2.95;;;16.30;87.10;;;;;;5049639;28;20488;-46
2022/07/23 06:26:25;;;;;;;4.43;3.08;;;16.20;86.70;;;;;;5048718;28;20083;-46
2022/07/23 06:28:52;;;;;;;5.05;2.80;;;16.10;86.90;;;;;;5048682;28;20017;-57
2022/07/23 06:31:19;;;;;;;4.55;2.38;;;15.90;87.20;;;;;;5065684;28;20036;-54
2022/07/23 06:33:47;;;;;;;5.40;2.47;;;15.90;87.50;;;;;;5048752;28;20035;-54
2022/07/23 06:36:16;;;;;;;6.30;2.40;;;15.90;87.80;;;;;;5049876;28;20471;-52
2022/07/23 06:38:47;;;;;;;5.37;3.03;;;15.90;88.00;;;;;;5049713;28;20024;-50
2022/07/23 06:41:14;;;;;;;6.90;2.75;;;15.90;88.40;;;;;;5032147;28;20275;-50
2022/07/23 06:43:41;;;;;;;4.28;2.33;;;15.80;88.40;;;;;;5048369;28;20044;-52
2022/07/23 06:46:07;;;;;;;5.78;2.40;;;15.90;88.20;;;;;;5049498;28;20036;-52
2022/07/23 06:48:35;;;;;;;2.75;1.38;;;15.90;87.80;;;;;;5049630;28;20088;-50
2022/07/23 06:51:03;;;;;;;3.33;1.60;;;15.80;87.80;;;;;;5049579;28;20382;-51
2022/07/23 06:53:30;;;;;;;5.28;2.00;;;15.90;87.90;;;;;;5049357;28;20045;-48
2022/07/23 06:55:56;;;;;;;6.07;1.92;;;16.10;88.10;;;;;;5031796;28;20021;-49
2022/07/23 06:58:23;;;;;;;3.80;1.90;;;16.20;87.40;;;;;;5049609;28;20339;-48
2022/07/23 07:00:50;;;;;;;3.17;1.45;;;16.30;87.30;;;;;;5049341;28;20366;-48
2022/07/23 07:03:19;;;;;;;3.63;1.48;;;16.40;87.10;;;;;;5048105;28;20028;-46
2022/07/23 07:05:46;;;;;;;2.85;1.30;;;16.50;86.30;;;;;;5049064;28;20538;-46
2022/07/23 07:08:15;;;;;;;3.20;0.95;;;16.50;85.90;;;;;;5048979;28;20029;-46
2022/07/23 07:10:42;;;;;;;4.07;0.80;;;16.50;86.00;;;;;;5047693;28;20382;-45
2022/07/23 07:13:09;;;;;;;2.78;1.17;;;16.60;85.60;;;;;;5048422;28;20135;-45
2022/07/23 07:15:36;;;;;;;4.13;0.88;;;16.60;84.60;;;;;;5048406;28;20017;-44
2022/07/23 07:18:03;;;;;;;3.78;1.23;;;16.60;84.60;;;;;;5047407;28;20079;-45
2022/07/23 07:20:30;;;;;;;8.07;1.02;;;16.70;83.90;;;;;;5048665;28;20525;-45
2022/07/23 07:22:57;;;;;;;4.30;1.67;;;16.70;83.60;;;;;;5030537;28;20025;-44
2022/07/23 07:25:24;;;;;;;2.33;0.88;;;16.70;84.20;;;;;;5048213;28;20442;-45
2022/07/23 07:27:50;;;;;;;2.03;0.85;;;16.60;84.00;;;;;;5048350;28;20085;-45
2022/07/23 07:30:17;;;;;;;5.15;1.08;;;16.50;84.30;;;;;;5049033;28;20052;-45
2022/07/23 07:32:43;;;;;;;3.05;0.90;;;16.40;83.90;;;;;;5049045;28;20021;-44
2022/07/23 07:35:10;;;;;;;4.57;1.27;;;16.30;83.90;;;;;;5048894;28;20044;-44
2022/07/23 07:37:36;;;;;;;6.13;1.20;;;16.30;84.40;;;;;;5050245;28;20423;-47
2022/07/23 07:40:03;;;;;;;5.25;1.20;;;16.20;84.20;;;;;;5053001;28;20381;-44
2022/07/23 07:42:31;;;;;;;2.55;1.20;;;16.70;85.50;;;;;;5035551;28;20114;-45
2022/07/23 07:44:58;;;;;;;4.45;1.10;;;17.20;83.40;;;;;;5052689;28;20032;-47
2022/07/23 07:47:26;;;;;;;4.60;0.80;;;17.40;82.00;;;;;;5051683;28;20472;-45
2022/07/23 07:49:51;;;;;;;3.20;0.90;;;17.40;80.90;;;;;;5052536;28;20086;-45
2022/07/23 07:52:18;;;;;;;6.03;1.60;;;17.30;81.10;;;;;;5034888;28;20041;-45
2022/07/23 07:54:44;;;;;;;5.25;1.23;;;17.00;81.40;;;;;;5034908;28;20035;-47
2022/07/23 07:57:12;;;;;;;4.20;1.30;;;16.80;82.10;;;;;;5052597;28;20523;-45
2022/07/23 07:59:39;;;;;;;3.10;1.33;;;16.40;81.40;;;;;;5052757;28;20516;-45
2022/07/23 08:02:06;;;;;;;2.80;1.63;;;16.20;82.90;;;;;;5068423;28;20071;-45
2022/07/23 08:04:32;;;;;;;3.03;1.00;;;16.10;81.60;;;;;;5052766;28;20402;-46
2022/07/23 08:07:03;;;;;;;2.15;1.20;;;15.90;80.60;;;;;;5052430;28;20071;-47
2022/07/23 08:09:29;;;;;;;3.70;0.80;;;15.90;80.80;;;;;;5052216;28;20025;-47
2022/07/23 08:11:56;;;;;;;2.70;1.15;;;15.80;80.80;;;;;;5052468;28;20017;-46
2022/07/23 08:14:23;;;;;;;3.35;1.05;;;15.80;81.20;;;;;;5052157;28;20036;-47
2022/07/23 08:16:49;;;;;;;7.43;1.00;;;15.90;81.30;;;;;;5034859;28;20033;-45
2022/07/23 08:19:16;;;;;;;1.75;0.80;;;16.20;81.30;;;;;;5052340;28;20021;-50
2022/07/23 08:21:45;;;;;;;2.17;0.70;;;16.30;80.60;;;;;;5052234;28;20033;-47
2022/07/23 08:24:12;;;;;;;2.75;0.75;;;16.40;80.20;;;;;;5052299;28;20047;-47
2022/07/23 08:26:38;;;;;;;2.38;0.77;;;16.50;80.90;;;;;;5052176;28;20099;-47
2022/07/23 08:29:04;;;;;;;3.40;1.23;;;16.60;80.40;;;;;;5051868;28;20029;-47
2022/07/23 08:31:32;;;;;;;3.40;0.63;;;16.70;80.00;;;;;;5051045;28;20035;-47
2022/07/23 08:34:02;;;;;;;2.95;1.00;;;16.90;80.30;;;;;;5051595;28;20025;-53
2022/07/23 08:36:32;;;;;;;2.60;0.80;;;17.00;80.70;;;;;;5051896;28;20090;-48
2022/07/23 08:39:03;;;;;;;;;;;17.20;81.00;;;;;;5052358;28;20109;-48
2022/07/23 08:41:29;;;;;;;5.97;1.10;;;17.40;80.90;;;;;;5051958;28;20020;-47
2022/07/23 08:43:56;;;;;;;4.97;1.20;;;17.50;79.60;;;;;;5051942;28;20474;-47
2022/07/23 08:46:23;;;;;;;3.45;1.08;;;17.70;78.30;;;;;;5051477;28;20071;-47
2022/07/23 08:48:51;;;;;;;2.95;0.98;;;17.90;77.60;;;;;;5050426;28;20020;-47
2022/07/23 08:51:21;;;;;;;4.10;1.02;;;17.90;77.40;;;;;;5051780;28;20051;-47
2022/07/23 08:53:48;;;;;;;2.05;0.90;;;17.80;76.70;;;;;;5051848;28;20361;-47
2022/07/23 08:56:14;;;;;;;2.70;0.88;;;17.70;77.00;;;;;;5051451;28;20033;-47
2022/07/23 08:58:41;;;;;;;3.15;1.05;;;17.70;77.50;;;;;;5033860;28;20028;-48
2022/07/23 09:01:08;;;;;;;3.38;1.08;;;17.90;78.60;;;;;;5051670;28;20037;-47
2022/07/23 09:03:39;;;;;;;3.72;0.90;;;17.90;76.10;;;;;;5033680;28;20040;-46
2022/07/23 09:06:08;;;;;;;4.43;1.10;;;17.90;75.40;;;;;;5051686;28;20078;-47
2022/07/23 09:08:38;;;;;;;3.28;0.90;;;17.90;74.80;;;;;;5051038;28;20029;-47
2022/07/23 09:11:08;;;;;;;3.50;0.80;;;17.90;75.20;;;;;;5051288;28;20035;-47
2022/07/23 09:13:48;;;;;;;2.10;0.95;;;17.80;75.10;;;;;;5051236;28;20036;-49
2022/07/23 09:16:21;;;;;;;3.42;0.93;;;17.60;75.00;;;;;;5033582;28;20090;-48
2022/07/23 09:18:53;;;;;;;1.95;0.88;;;17.60;75.50;;;;;;5050135;28;20503;-46
2022/07/23 09:21:23;;;;;;;4.65;1.05;;;17.70;75.40;;;;;;5051253;28;20460;-47
2022/07/23 09:24:00;;;;;;;4.03;1.05;;;17.80;74.50;;;;;;5050968;28;20030;-51
2022/07/23 09:26:37;;;;;;;3.80;0.60;;;17.90;72.80;;;;;;5051028;28;20108;-49
2022/07/23 09:29:16;;;;;;;1.58;0.63;;;17.90;71.80;;;;;;5050920;28;20089;-46
2022/07/23 09:31:50;;;;;;;3.08;0.70;;;17.90;71.20;;;;;;5051018;28;20086;-51
2022/07/23 09:34:27;;;;;;;2.20;0.98;;;17.90;70.20;;;;;;5050681;28;20108;-46
2022/07/23 09:37:18;;;;;;;1.63;0.60;;;18.00;69.60;;;;;;5050687;28;20479;-47
2022/07/23 09:39:49;;;;;;;3.45;0.82;;;17.90;69.60;;;;;;5032741;28;20466;-49
2022/07/23 09:42:24;;;;;;;2.55;0.88;;;17.90;69.60;;;;;;5050771;28;20029;-48
2022/07/23 09:44:57;;;;;;;2.55;0.80;;;17.90;69.50;;;;;;5049446;28;20469;-50
2022/07/23 09:47:25;;;;;;;2.35;0.85;;;18.00;69.00;;;;;;5034643;28;20136;-47
2022/07/23 09:50:08;;;;;;;1.60;0.65;;;18.10;68.60;;;;;;5029569;28;20030;-50
2022/07/23 09:52:55;;;;;;;2.13;0.70;;;18.20;69.30;;;;;;5030821;28;20049;-49
2022/07/23 09:55:38;;;;;;;2.63;0.75;;;18.40;69.60;;;;;;5030186;28;20025;-48
2022/07/23 09:58:12;;;;;;;1.42;0.85;;;18.20;67.40;;;;;;5030371;28;20092;-47
2022/07/23 10:00:44;;;;;;;2.72;0.60;;;18.10;68.60;;;;;;5029928;28;20025;-50
2022/07/23 10:03:12;;;;;;;2.70;0.70;;;17.90;68.40;;;;;;5029952;28;20481;-49
2022/07/23 10:05:40;;;;;;;3.40;0.82;;;17.90;69.30;;;;;;5029971;28;20061;-48
2022/07/23 10:08:12;;;;;;;1.58;0.50;;;17.90;69.30;;;;;;5030439;28;20025;-51
2022/07/23 10:10:39;;;;;;;2.63;0.60;;;17.90;69.70;;;;;;5030098;28;20101;-47
2022/07/23 10:15:55;;;;;;;1.33;0.63;;;18.00;69.90;;;;;;5030205;28;20048;-50
2022/07/23 10:18:21;;;;;;;3.22;0.70;;;18.20;68.70;;;;;;5030081;28;20450;-49
2022/07/23 10:20:49;;;;;;;2.03;0.70;;;18.20;69.40;;;;;;5030204;28;20041;-50
2022/07/23 10:23:33;;;;;;;3.55;1.02;;;18.20;69.40;;;;;;5030358;28;20037;-50
2022/07/23 10:26:37;;;;;;;4.10;1.48;;;18.10;70.80;;;;;;5029965;28;20032;-48
2022/07/23 10:29:07;;;;;;;2.17;0.60;;;18.30;72.00;;;;;;5029828;28;20033;-50
2022/07/23 10:32:05;;;;;;;1.92;0.65;;;18.30;71.30;;;;;;5028922;28;20048;-49
2022/07/23 10:34:55;;;;;;;3.75;0.80;;;18.40;69.80;;;;;;5029785;28;20026;-47
2022/07/23 10:37:56;;;;;;;2.42;0.82;;;18.40;68.30;;;;;;5029713;28;20039;-50
2022/07/23 10:40:23;;;;;;;4.50;1.13;;;18.20;68.40;;;;;;5006978;28;20048;-49
2022/07/23 10:42:54;;;;;;;1.48;0.55;;;18.30;68.70;;;;;;5012088;28;20035;-52
2022/07/23 10:45:39;;;;;;;1.95;0.60;;;18.40;67.90;;;;;;5011882;28;20025;-48
2022/07/23 10:48:18;;;;;;;2.58;0.60;;;18.40;67.00;;;;;;5049823;28;20385;-50
2022/07/23 10:51:14;;;;;;;4.22;0.82;;;18.40;68.30;;;;;;5049553;28;20016;-48
2022/07/23 10:53:59;;;;;;;3.58;0.60;;;18.60;67.20;;;;;;5049345;28;20046;-50
2022/07/23 10:57:01;;;;;;;1.83;0.60;;;18.90;66.70;;;;;;5048016;28;20032;-49
2022/07/23 10:59:28;;;;;;;2.22;0.60;;;18.70;66.10;;;;;;5049370;28;20025;-51
2022/07/23 11:02:26;;;;;;;3.45;0.88;;;18.70;67.00;;;;;;5049312;28;20029;-47
2022/07/23 11:04:52;;;;;;;5.05;1.02;;;18.70;67.10;;;;;;5048198;28;20354;-48
2022/07/23 11:07:22;;;;;;;2.97;0.60;;;18.60;66.70;;;;;;5032053;28;20450;-47
2022/07/23 11:09:49;;;;;;;3.55;0.52;;;18.70;66.20;;;;;;5049444;28;20025;-47
2022/07/23 11:12:21;;;;;;;2.13;0.68;;;18.80;65.40;;;;;;5051717;28;20064;-48
2022/07/23 11:15:14;;;;;;;2.80;0.60;;;18.80;65.50;;;;;;5055774;28;20029;-47
2022/07/23 11:17:48;;;;;;;1.35;0.43;;;18.70;67.00;;;;;;5055723;28;20112;-47
2022/07/23 11:20:26;;;;;;;2.60;0.60;;;18.70;66.40;;;;;;5055884;28;20024;-50
2022/07/23 11:22:58;;;;;;;1.48;0.52;;;18.80;67.00;;;;;;5055566;28;20037;-47
2022/07/23 11:25:44;;;;;;;1.58;0.55;;;18.90;66.70;;;;;;5055872;28;20032;-48
2022/07/23 11:28:28;;;;;;;3.08;0.60;;;19.10;66.60;;;;;;5055064;28;20020;-49
2022/07/23 11:31:16;;;;;;;5.38;0.90;;;19.10;66.30;;;;;;5054689;28;20029;-47
2022/07/23 11:33:43;;;;;;;2.15;0.90;;;19.10;66.50;;;;;;5071300;28;20017;-49
2022/07/23 11:36:10;;;;;;;1.38;0.60;;;19.00;66.60;;;;;;5055450;28;20036;-48
2022/07/23 11:38:39;;;;;;;2.25;0.40;;;19.00;65.90;;;;;;5054779;28;20128;-48
2022/07/23 11:41:10;;;;;;;2.50;0.65;;;19.10;65.70;;;;;;5038133;28;20082;-47
2022/07/23 11:43:37;;;;;;;2.38;0.70;;;19.00;66.90;;;;;;5055656;28;20053;-48
2022/07/23 11:46:03;;;;;;;4.18;0.82;;;19.10;67.40;;;;;;5055469;28;20037;-48
2022/07/23 11:48:35;;;;;;;1.83;0.70;;;19.30;66.80;;;;;;5055753;28;20104;-48
2022/07/23 11:51:02;;;;;;;3.72;1.52;;;19.40;66.60;;;;;;5055902;28;20096;-48
2022/07/23 11:53:46;;;;;;;2.95;0.63;;;19.60;65.20;;;;;;5054508;28;20465;-49
2022/07/23 11:56:13;;;;;;;4.40;0.82;;;19.60;65.50;;;;;;5055443;28;20039;-49
2022/07/23 11:58:57;;;;;;;3.35;0.60;;;19.90;65.60;;;;;;5054500;28;20453;-48
2022/07/23 12:01:24;;;;;;;2.58;0.75;;;20.00;64.20;;;;;;5055416;28;20333;-49
2022/07/23 12:03:52;;;;;;;2.63;0.90;;;19.90;63.30;;;;;;5055766;28;20333;-48
2022/07/23 12:06:18;;;;;;;2.38;0.73;;;19.60;63.90;;;;;;5037629;28;20033;-48
2022/07/23 12:08:45;;;;;;;2.17;0.90;;;19.40;64.70;;;;;;5055679;28;20453;-47
2022/07/23 12:11:12;;;;;;;2.88;0.98;;;19.40;66.20;;;;;;5055386;28;20026;-48
2022/07/23 12:13:39;;;;;;;2.85;0.77;;;19.40;66.10;;;;;;5055382;28;20067;-47
2022/07/23 12:16:05;;;;;;;2.22;0.73;;;19.80;68.10;;;;;;5055219;28;20033;-48
2022/07/23 12:18:33;;;;;;;3.65;0.85;;;20.40;65.00;;;;;;5055479;28;20095;-48
2022/07/23 12:21:04;;;;;;;3.38;0.88;;;20.30;63.80;;;;;;5055323;28;20029;-49
2022/07/23 12:23:31;;;;;;;1.92;0.60;;;20.20;63.80;;;;;;5036056;28;20335;-48
2022/07/23 12:26:02;;;;;;;3.78;0.80;;;19.90;65.00;;;;;;5052046;28;20036;-48
2022/07/23 12:28:32;;;;;;;2.95;0.70;;;19.50;65.90;;;;;;5052347;28;20330;-47
2022/07/23 12:30:59;;;;;;;2.00;0.68;;;19.40;66.40;;;;;;5051093;28;20029;-47
2022/07/23 12:33:34;;;;;;;1.65;0.65;;;19.70;66.30;;;;;;5034355;28;20036;-47
2022/07/23 12:36:06;;;;;;;2.03;0.68;;;19.80;65.80;;;;;;5051118;28;20028;-47
2022/07/23 12:38:48;;;;;;;3.08;0.70;;;19.80;65.90;;;;;;5052037;28;20588;-46
2022/07/23 12:41:15;;;;;;;2.00;0.85;;;19.70;66.50;;;;;;5051830;28;20028;-47
2022/07/23 12:43:43;;;;;;;2.40;0.90;;;19.80;65.80;;;;;;5051827;28;20025;-47
2022/07/23 12:46:15;;;;;;;2.08;0.70;;;19.60;65.20;;;;;;5045746;28;20073;-49
2022/07/23 12:48:49;;;;;;;3.33;0.88;;;19.60;66.30;;;;;;5031667;28;20102;-49
2022/07/23 12:51:20;;;;;;;1.52;0.85;;;19.80;66.00;;;;;;5032221;28;20025;-48
2022/07/23 12:53:49;;;;;;;3.95;0.60;;;19.90;64.00;;;;;;5030759;28;20040;-48
2022/07/23 12:56:19;;;;;;;3.45;0.70;;;19.60;64.20;;;;;;5014145;28;20083;-48
2022/07/23 12:58:57;;;;;;;1.92;0.75;;;19.70;63.70;;;;;;5031732;28;20466;-47
2022/07/23 13:01:42;;;;;;;1.85;0.60;;;19.80;63.90;;;;;;5030334;28;20122;-49